createdAt,value
2018-11-11T00:02:18.999Z,13.40
2018-11-11T00:04:50.495Z,13.30
2018-11-11T00:07:22.080Z,13.20
2018-11-11T00:09:53.740Z,13.20
2018-11-11T00:12:24.975Z,13.30
2018-11-11T00:14:55.946Z,13.30
2018-11-11T00:17:27.136Z,13.20
2018-11-11T00:19:58.319Z,13.20
2018-11-11T00:22:29.576Z,13.10
2018-11-11T00:25:00.910Z,13.10
2018-11-11T00:27:32.141Z,13.10
2018-11-11T00:30:03.429Z,13.10
2018-11-11T00:32:34.491Z,13.10
2018-11-11T00:35:05.993Z,13.00
2018-11-11T00:37:37.330Z,13.00
2018-11-11T00:40:09.151Z,13.00
2018-11-11T00:42:41.015Z,13.00
2018-11-11T00:45:12.975Z,13.00
2018-11-11T00:47:44.724Z,13.00
2018-11-11T00:50:16.004Z,13.10
2018-11-11T00:52:47.053Z,13.10
2018-11-11T00:55:18.384Z,13.20
2018-11-11T00:57:50.236Z,13.10
2018-11-11T01:00:21.528Z,13.10
2018-11-11T01:02:53.408Z,13.10
2018-11-11T01:05:24.687Z,13.20
2018-11-11T01:07:55.710Z,13.30
2018-11-11T01:10:26.883Z,13.30
2018-11-11T01:12:57.883Z,13.20
2018-11-11T01:15:29.167Z,13.10
2018-11-11T01:18:00.556Z,13.10
2018-11-11T01:20:31.956Z,13.10
2018-11-11T01:23:03.254Z,13.00
2018-11-11T01:25:34.543Z,13.10
2018-11-11T01:28:05.995Z,13.30
2018-11-11T01:30:37.135Z,13.20
2018-11-11T01:33:08.364Z,13.10
2018-11-11T01:35:39.518Z,13.10
2018-11-11T01:38:10.728Z,13.20
2018-11-11T01:40:41.925Z,13.30
2018-11-11T01:43:13.526Z,13.10
2018-11-11T01:45:44.871Z,13.00
2018-11-11T01:48:16.256Z,13.10
2018-11-11T01:50:47.645Z,13.20
2018-11-11T01:53:19.071Z,13.20
2018-11-11T01:55:50.424Z,13.10
2018-11-11T01:58:22.060Z,13.10
2018-11-11T02:00:53.674Z,13.10
2018-11-11T02:03:24.967Z,12.90
2018-11-11T02:05:56.607Z,12.90
2018-11-11T02:08:28.191Z,13.00
2018-11-11T02:10:59.353Z,12.80
2018-11-11T02:13:30.982Z,12.60
2018-11-11T02:16:02.320Z,12.60
2018-11-11T02:18:33.696Z,12.70
2018-11-11T02:21:05.233Z,12.80
2018-11-11T02:23:36.379Z,12.70
2018-11-11T02:26:07.915Z,12.50
2018-11-11T02:28:39.106Z,12.40
2018-11-11T02:31:10.268Z,12.50
2018-11-11T02:33:42.311Z,12.50
2018-11-11T02:36:13.813Z,12.70
2018-11-11T02:38:45.021Z,12.70
2018-11-11T02:41:16.445Z,12.60
2018-11-11T02:43:47.623Z,12.60
2018-11-11T02:46:19.690Z,12.40
2018-11-11T02:48:51.159Z,12.40
2018-11-11T02:51:22.360Z,12.50
2018-11-11T02:53:53.808Z,12.60
2018-11-11T02:56:24.935Z,12.70
2018-11-11T02:58:56.355Z,12.70
2018-11-11T03:01:27.532Z,12.70
2018-11-11T03:03:58.703Z,12.40
2018-11-11T03:06:29.900Z,12.10
2018-11-11T03:09:01.289Z,12.00
2018-11-11T03:11:32.656Z,12.10
2018-11-11T03:14:04.012Z,12.30
2018-11-11T03:16:35.432Z,12.20
2018-11-11T03:19:07.592Z,12.10
2018-11-11T03:21:39.039Z,12.10
2018-11-11T03:24:10.366Z,12.20
2018-11-11T03:26:41.806Z,12.30
2018-11-11T03:29:13.760Z,12.40
2018-11-11T03:31:44.995Z,12.40
2018-11-11T03:34:16.159Z,12.40
2018-11-11T03:36:47.811Z,12.40
2018-11-11T03:39:19.379Z,12.40
2018-11-11T03:41:50.532Z,12.30
2018-11-11T03:44:22.145Z,12.40
2018-11-11T03:46:53.287Z,12.30
2018-11-11T03:49:24.483Z,12.20
2018-11-11T03:51:55.904Z,12.20
2018-11-11T03:54:27.311Z,12.10
2018-11-11T03:57:02.022Z,12.10
2018-11-11T03:59:33.174Z,12.00
2018-11-11T04:02:04.482Z,12.00
2018-11-11T04:04:35.600Z,12.00
2018-11-11T04:07:06.808Z,12.10
2018-11-11T04:09:37.959Z,12.00
2018-11-11T04:12:09.325Z,12.00
2018-11-11T04:14:40.839Z,12.00
2018-11-11T04:17:12.100Z,12.00
2018-11-11T04:19:43.485Z,11.90
2018-11-11T04:22:21.420Z,11.80
2018-11-11T04:24:53.564Z,11.80
2018-11-11T04:27:24.762Z,11.80
2018-11-11T04:29:56.367Z,11.70
2018-11-11T04:32:27.534Z,11.80
2018-11-11T04:34:58.762Z,11.80
2018-11-11T04:37:30.620Z,11.80
2018-11-11T04:40:01.920Z,11.80
2018-11-11T04:42:33.097Z,11.70
2018-11-11T04:45:04.399Z,11.60
2018-11-11T04:47:35.876Z,11.50
2018-11-11T04:50:09.362Z,11.50
2018-11-11T04:52:40.646Z,11.40
2018-11-11T04:55:12.244Z,11.50
2018-11-11T04:57:43.675Z,11.50
2018-11-11T05:00:15.790Z,11.50
2018-11-11T05:02:46.956Z,11.50
2018-11-11T05:05:18.332Z,11.40
2018-11-11T05:07:51.211Z,11.40
2018-11-11T05:10:22.480Z,11.40
2018-11-11T05:12:53.676Z,11.30
2018-11-11T05:15:24.867Z,11.30
2018-11-11T05:17:56.240Z,11.30
2018-11-11T05:20:27.647Z,11.30
2018-11-11T05:22:58.863Z,11.30
2018-11-11T05:25:30.077Z,11.30
2018-11-11T05:28:01.424Z,11.20
2018-11-11T05:30:33.036Z,11.20
2018-11-11T05:33:04.231Z,11.20
2018-11-11T05:35:35.562Z,11.10
2018-11-11T05:38:06.810Z,11.20
2018-11-11T05:40:38.150Z,11.20
2018-11-11T05:43:09.805Z,11.30
2018-11-11T05:45:40.940Z,11.40
2018-11-11T05:48:12.127Z,11.40
2018-11-11T05:50:43.752Z,11.40
2018-11-11T05:53:15.102Z,11.50
2018-11-11T05:55:46.355Z,11.50
2018-11-11T05:58:17.495Z,11.40
2018-11-11T06:00:49.653Z,11.30
2018-11-11T06:03:21.023Z,11.10
2018-11-11T06:05:52.447Z,11.00
2018-11-11T06:08:23.651Z,10.90
2018-11-11T06:10:55.254Z,10.90
2018-11-11T06:13:26.534Z,10.80
2018-11-11T06:15:57.484Z,10.80
2018-11-11T06:18:28.662Z,10.70
2018-11-11T06:20:59.671Z,10.70
2018-11-11T06:23:30.860Z,10.70
2018-11-11T06:26:02.098Z,10.80
2018-11-11T06:28:33.441Z,10.70
2018-11-11T06:31:04.651Z,10.50
2018-11-11T06:33:35.818Z,10.60
2018-11-11T06:36:07.006Z,10.60
2018-11-11T06:38:37.999Z,10.70
2018-11-11T06:41:09.437Z,10.70
2018-11-11T06:43:40.579Z,10.80
2018-11-11T06:46:11.595Z,10.80
2018-11-11T06:48:43.479Z,10.80
2018-11-11T06:51:14.744Z,10.80
2018-11-11T06:53:45.984Z,10.80
2018-11-11T06:56:17.831Z,10.80
2018-11-11T06:58:49.115Z,10.70
2018-11-11T07:01:20.623Z,10.70
2018-11-11T07:03:58.774Z,10.70
2018-11-11T07:06:30.865Z,10.80
2018-11-11T07:09:03.177Z,10.70
2018-11-11T07:11:34.116Z,10.70
2018-11-11T07:14:05.735Z,10.70
2018-11-11T07:16:36.888Z,10.60
2018-11-11T07:19:08.192Z,10.60
2018-11-11T07:21:39.516Z,10.80
2018-11-11T07:24:10.751Z,10.80
2018-11-11T07:26:41.891Z,10.90
2018-11-11T07:29:12.843Z,11.00
2018-11-11T07:31:43.897Z,11.00
2018-11-11T07:34:15.036Z,11.10
2018-11-11T07:36:46.228Z,11.20
2018-11-11T07:39:17.418Z,11.20
2018-11-11T07:41:49.604Z,11.30
2018-11-11T07:44:20.780Z,11.30
2018-11-11T07:46:52.011Z,11.30
2018-11-11T07:49:22.976Z,11.30
2018-11-11T07:51:54.589Z,11.40
2018-11-11T07:54:25.857Z,11.40
2018-11-11T07:56:57.179Z,11.50
2018-11-11T07:59:28.139Z,11.60
2018-11-11T08:01:59.882Z,11.60
2018-11-11T08:04:31.431Z,11.60
2018-11-11T08:07:02.758Z,11.70
2018-11-11T08:09:33.888Z,11.80
2018-11-11T08:12:06.572Z,11.80
2018-11-11T08:14:37.847Z,12.00
2018-11-11T08:17:09.042Z,12.20
2018-11-11T08:19:40.046Z,12.30
2018-11-11T08:22:11.274Z,12.40
2018-11-11T08:24:42.410Z,12.40
2018-11-11T08:27:13.624Z,12.40
2018-11-11T08:30:48.023Z,12.50
2018-11-11T08:33:19.309Z,12.60
2018-11-11T08:35:50.504Z,12.60
2018-11-11T08:38:21.686Z,12.70
2018-11-11T08:40:52.945Z,12.70
2018-11-11T08:43:24.575Z,12.90
2018-11-11T08:45:55.668Z,13.00
2018-11-11T08:48:26.654Z,13.00
2018-11-11T08:50:57.678Z,13.10
2018-11-11T08:53:28.914Z,13.10
2018-11-11T08:56:00.259Z,13.10
2018-11-11T08:58:31.249Z,13.20
2018-11-11T09:01:02.427Z,13.30
2018-11-11T09:03:33.595Z,13.40
2018-11-11T09:06:04.811Z,13.60
2018-11-11T09:08:35.989Z,13.70
2018-11-11T09:11:07.320Z,13.70
2018-11-11T09:13:38.871Z,13.80
2018-11-11T09:16:10.238Z,13.80
2018-11-11T09:18:41.747Z,13.80
2018-11-11T09:21:12.972Z,14.00
2018-11-11T09:23:44.261Z,14.10
2018-11-11T09:26:15.528Z,14.30
2018-11-11T09:28:46.717Z,14.40
2018-11-11T09:31:17.904Z,14.50
2018-11-11T09:33:49.105Z,14.70
2018-11-11T09:36:20.588Z,14.90
2018-11-11T09:38:52.203Z,15.00
2018-11-11T09:41:23.446Z,15.20
2018-11-11T09:43:54.647Z,15.30
2018-11-11T09:46:25.829Z,15.40
2018-11-11T09:48:56.839Z,15.70
2018-11-11T09:51:28.062Z,16.00
2018-11-11T09:53:59.315Z,16.30
2018-11-11T09:56:30.599Z,16.50
2018-11-11T09:59:01.819Z,16.60
2018-11-11T10:01:33.043Z,16.80
2018-11-11T10:04:08.344Z,16.90
2018-11-11T10:06:44.510Z,17.00
2018-11-11T10:09:25.608Z,17.10
2018-11-11T10:12:01.026Z,17.10
2018-11-11T10:14:36.238Z,17.20
2018-11-11T10:17:13.070Z,17.40
2018-11-11T10:20:20.469Z,17.70
2018-11-11T10:22:56.295Z,18.10
2018-11-11T10:26:03.860Z,18.80
2018-11-11T10:30:41.574Z,19.40
2018-11-11T10:33:34.924Z,20.20
2018-11-11T10:36:11.639Z,20.80
2018-11-11T10:38:47.744Z,21.20
2018-11-11T10:41:23.262Z,21.40
2018-11-11T10:43:57.992Z,21.80
2018-11-11T10:46:40.583Z,22.00
2018-11-11T10:49:14.671Z,21.90
2018-11-11T10:51:46.016Z,22.00
2018-11-11T10:54:17.210Z,22.10
2018-11-11T10:56:48.683Z,22.50
2018-11-11T10:59:20.008Z,22.80
2018-11-11T11:01:56.007Z,23.00
2018-11-11T11:04:27.251Z,22.80
2018-11-11T11:07:03.262Z,23.10
2018-11-11T11:09:34.940Z,23.10
2018-11-11T11:12:06.038Z,23.20
2018-11-11T11:14:37.346Z,23.10
2018-11-11T11:17:08.463Z,23.20
2018-11-11T11:19:39.570Z,23.10
2018-11-11T11:22:11.324Z,22.90
2018-11-11T11:24:42.328Z,23.10
2018-11-11T11:27:13.549Z,23.10
2018-11-11T11:29:44.696Z,23.00
2018-11-11T11:32:16.098Z,23.00
2018-11-11T11:34:47.141Z,23.30
2018-11-11T11:37:18.312Z,23.40
2018-11-11T11:39:49.719Z,23.40
2018-11-11T11:42:21.198Z,23.50
2018-11-11T11:44:52.514Z,23.80
2018-11-11T11:47:23.820Z,23.70
2018-11-11T11:49:54.849Z,23.90
2018-11-11T11:52:26.111Z,23.80
2018-11-11T11:54:57.483Z,23.80
2018-11-11T11:57:28.936Z,23.70
2018-11-11T12:00:00.180Z,23.80
2018-11-11T12:02:31.207Z,24.10
2018-11-11T12:05:02.278Z,23.80
2018-11-11T12:07:33.563Z,23.60
2018-11-11T12:10:04.945Z,23.60
2018-11-11T12:12:35.999Z,23.70
2018-11-11T12:15:08.069Z,23.70
2018-11-11T12:17:39.387Z,23.60
2018-11-11T12:20:10.892Z,23.60
2018-11-11T12:22:41.927Z,23.50
2018-11-11T12:25:13.114Z,23.30
2018-11-11T12:27:44.195Z,23.20
2018-11-11T12:30:15.415Z,23.20
2018-11-11T12:32:46.724Z,22.80
2018-11-11T12:35:18.202Z,22.30
2018-11-11T12:37:49.348Z,22.00
2018-11-11T12:40:21.052Z,22.20
2018-11-11T12:42:52.044Z,22.20
2018-11-11T12:45:23.256Z,22.10
2018-11-11T12:47:54.595Z,22.30
2018-11-11T12:50:25.899Z,22.00
2018-11-11T12:52:57.624Z,21.80
2018-11-11T12:55:29.556Z,21.80
2018-11-11T12:58:00.752Z,21.60
2018-11-11T13:00:31.940Z,21.50
2018-11-11T13:03:03.147Z,21.50
2018-11-11T13:05:34.362Z,21.50
2018-11-11T13:08:05.800Z,21.70
2018-11-11T13:10:37.791Z,21.70
2018-11-11T13:13:09.151Z,21.80
2018-11-11T13:15:40.577Z,21.70
2018-11-11T13:18:12.883Z,21.90
2018-11-11T13:20:43.826Z,22.10
2018-11-11T13:23:15.838Z,21.80
2018-11-11T13:25:47.038Z,22.10
2018-11-11T13:28:18.225Z,22.40
2018-11-11T13:30:49.390Z,22.50
2018-11-11T13:33:20.419Z,22.40
2018-11-11T13:35:51.660Z,22.30
2018-11-11T13:38:23.367Z,22.20
2018-11-11T13:40:54.450Z,22.00
2018-11-11T13:43:25.809Z,21.90
2018-11-11T13:45:57.233Z,21.50
2018-11-11T13:48:28.311Z,21.20
2018-11-11T13:50:59.520Z,21.00
2018-11-11T13:53:30.702Z,20.70
2018-11-11T13:56:01.933Z,20.50
2018-11-11T13:58:32.954Z,20.40
2018-11-11T14:01:04.320Z,20.30
2018-11-11T14:03:35.468Z,20.20
2018-11-11T14:10:55.007Z,20.00
2018-11-11T14:13:26.389Z,20.00
2018-11-11T14:15:57.712Z,20.00
2018-11-11T14:18:29.205Z,20.00
2018-11-11T14:21:00.606Z,20.00
2018-11-11T14:23:31.874Z,20.00
2018-11-11T14:26:03.902Z,19.90
2018-11-11T14:28:35.264Z,19.70
2018-11-11T14:31:06.931Z,19.50
2018-11-11T14:33:38.253Z,19.40
2018-11-11T14:36:09.579Z,19.20
2018-11-11T14:38:41.209Z,19.20
2018-11-11T14:41:12.352Z,19.20
2018-11-11T14:43:43.388Z,19.10
2018-11-11T14:46:14.596Z,19.10
2018-11-11T14:48:45.952Z,19.10
2018-11-11T14:51:17.943Z,19.10
2018-11-11T14:53:50.207Z,19.10
2018-11-11T14:56:21.623Z,19.10
2018-11-11T14:58:52.947Z,18.90
2018-11-11T15:01:24.050Z,18.90
2018-11-11T15:03:55.079Z,18.80
2018-11-11T15:06:26.239Z,18.70
2018-11-11T15:08:57.730Z,18.70
2018-11-11T15:11:28.807Z,18.70
2018-11-11T15:13:59.811Z,18.60
2018-11-11T15:16:30.979Z,18.60
2018-11-11T15:19:02.283Z,18.50
2018-11-11T15:21:33.634Z,18.50
2018-11-11T15:24:04.945Z,18.40
2018-11-11T15:26:36.153Z,18.40
2018-11-11T15:29:07.340Z,18.40
2018-11-11T15:31:38.558Z,18.40
2018-11-11T15:34:09.736Z,18.50
2018-11-11T15:36:40.702Z,18.40
2018-11-11T15:39:12.656Z,18.40
2018-11-11T15:41:43.883Z,18.30
2018-11-11T15:44:15.107Z,18.30
2018-11-11T15:46:46.771Z,18.20
2018-11-11T15:49:18.063Z,18.20
2018-11-11T15:51:49.258Z,18.20
2018-11-11T15:54:20.734Z,18.10
2018-11-11T15:56:51.847Z,18.00
2018-11-11T15:59:23.087Z,17.90
2018-11-11T16:01:54.212Z,17.90
2018-11-11T16:04:25.407Z,17.80
2018-11-11T16:06:56.612Z,17.70
2018-11-11T16:09:27.847Z,17.70
2018-11-11T16:12:00.012Z,17.70
2018-11-11T16:14:31.174Z,17.60
2018-11-11T16:17:02.364Z,17.60
2018-11-11T16:19:33.561Z,17.50
2018-11-11T16:22:05.087Z,17.50
2018-11-11T16:24:36.620Z,17.50
2018-11-11T16:27:07.792Z,17.50
2018-11-11T16:29:39.153Z,17.50
2018-11-11T16:32:10.332Z,17.50
2018-11-11T16:34:41.271Z,17.40
2018-11-11T16:37:12.549Z,17.40
2018-11-11T16:39:43.789Z,17.40
2018-11-11T16:42:15.338Z,17.40
2018-11-11T16:44:46.467Z,17.30
2018-11-11T16:47:17.429Z,17.30
2018-11-11T16:49:48.634Z,17.30
2018-11-11T16:52:19.831Z,17.30
2018-11-11T16:54:51.317Z,17.20
2018-11-11T16:57:23.191Z,17.20
2018-11-11T16:59:54.368Z,17.10
2018-11-11T17:02:25.567Z,17.00
2018-11-11T17:04:56.773Z,16.90
2018-11-11T17:07:28.143Z,16.90
2018-11-11T17:09:59.404Z,16.90
2018-11-11T17:12:31.471Z,16.80
2018-11-11T17:15:03.545Z,16.80
2018-11-11T17:17:34.692Z,16.80
2018-11-11T17:20:06.428Z,16.70
2018-11-11T17:22:38.279Z,16.70
2018-11-11T17:25:11.577Z,16.60
2018-11-11T17:27:42.774Z,16.60
2018-11-11T17:30:16.810Z,16.60
2018-11-11T17:32:48.697Z,16.50
2018-11-11T17:35:20.433Z,16.50
2018-11-11T17:37:51.750Z,16.50
2018-11-11T17:40:24.684Z,16.40
2018-11-11T17:42:56.258Z,16.40
2018-11-11T17:45:27.680Z,16.40
2018-11-11T17:47:58.992Z,16.30
2018-11-11T17:50:31.496Z,16.30
2018-11-11T17:53:04.116Z,16.30
2018-11-11T17:55:35.359Z,16.20
2018-11-11T17:58:06.704Z,16.10
2018-11-11T18:00:37.992Z,16.10
2018-11-11T18:03:10.233Z,16.10
2018-11-11T18:05:41.796Z,16.00
2018-11-11T18:08:12.935Z,16.00
2018-11-11T18:10:44.206Z,16.00
2018-11-11T18:13:15.311Z,16.00
2018-11-11T18:15:46.261Z,15.90
2018-11-11T18:18:17.473Z,15.90
2018-11-11T18:20:48.699Z,15.80
2018-11-11T18:23:19.874Z,15.80
2018-11-11T18:25:51.512Z,15.70
2018-11-11T18:28:22.651Z,15.60
2018-11-11T18:30:53.607Z,15.40
2018-11-11T18:33:24.860Z,15.40
2018-11-11T18:35:56.236Z,15.40
2018-11-11T18:38:27.226Z,15.30
2018-11-11T18:40:59.009Z,15.20
2018-11-11T18:43:29.982Z,15.40
2018-11-11T18:46:01.203Z,15.10
2018-11-11T18:48:32.335Z,15.00
2018-11-11T18:51:03.576Z,14.80
2018-11-11T18:53:34.581Z,14.80
2018-11-11T18:56:06.239Z,14.70
2018-11-11T18:58:38.114Z,14.60
2018-11-11T19:01:09.362Z,14.40
2018-11-11T19:03:40.666Z,14.50
2018-11-11T19:06:11.855Z,14.40
2018-11-11T19:08:42.866Z,14.40
2018-11-11T19:11:13.980Z,14.30
2018-11-11T19:13:45.039Z,14.30
2018-11-11T19:16:16.230Z,14.20
2018-11-11T19:18:47.446Z,14.20
2018-11-11T19:21:18.920Z,14.20
2018-11-11T19:23:50.303Z,14.20
2018-11-11T19:26:21.247Z,14.20
2018-11-11T19:28:52.469Z,14.10
2018-11-11T19:31:23.844Z,14.00
2018-11-11T19:33:55.473Z,13.90
2018-11-11T19:36:27.255Z,13.90
2018-11-11T19:38:58.532Z,13.90
2018-11-11T19:41:29.815Z,13.90
2018-11-11T19:44:00.775Z,13.90
2018-11-11T19:46:31.918Z,14.00
2018-11-11T19:49:02.924Z,13.90
2018-11-11T19:51:34.156Z,13.80
2018-11-11T19:54:05.379Z,13.70
2018-11-11T19:56:36.564Z,13.70
2018-11-11T19:59:07.821Z,13.60
2018-11-11T20:01:38.868Z,13.60
2018-11-11T20:04:10.279Z,13.70
2018-11-11T20:06:41.744Z,13.70
2018-11-11T20:09:14.505Z,13.70
2018-11-11T20:11:45.681Z,13.60
2018-11-11T20:14:17.007Z,13.60
2018-11-11T20:16:48.186Z,13.50
2018-11-11T20:19:19.192Z,13.40
2018-11-11T20:21:50.411Z,13.50
2018-11-11T20:24:21.659Z,13.50
2018-11-11T20:26:52.978Z,13.50
2018-11-11T20:29:24.311Z,13.40
2018-11-11T20:31:55.564Z,13.40
2018-11-11T20:34:26.785Z,13.60
2018-11-11T20:36:57.745Z,13.70
2018-11-11T20:39:28.931Z,13.80
2018-11-11T20:42:00.176Z,13.80
2018-11-11T20:44:31.305Z,13.90
2018-11-11T20:47:03.089Z,13.90
2018-11-11T20:49:34.287Z,13.90
2018-11-11T20:52:06.454Z,13.90
2018-11-11T20:54:37.482Z,13.90
2018-11-11T20:57:09.004Z,13.90
2018-11-11T20:59:40.227Z,13.90
2018-11-11T21:02:11.477Z,13.90
2018-11-11T21:04:42.614Z,13.90
2018-11-11T21:07:13.823Z,14.00
2018-11-11T21:09:45.011Z,13.90
2018-11-11T21:12:16.189Z,13.90
2018-11-11T21:14:47.391Z,13.80
2018-11-11T21:17:18.455Z,13.80
2018-11-11T21:19:49.583Z,13.90
2018-11-11T21:22:20.767Z,13.80
2018-11-11T21:24:52.230Z,13.80
2018-11-11T21:27:23.825Z,13.70
2018-11-11T21:29:55.150Z,13.70
2018-11-11T21:32:26.293Z,13.60
2018-11-11T21:34:58.052Z,13.40
2018-11-11T21:37:29.083Z,13.40
2018-11-11T21:40:00.271Z,13.30
2018-11-11T21:42:31.526Z,13.40
2018-11-11T21:45:02.668Z,13.40
2018-11-11T21:47:33.751Z,13.40
2018-11-11T21:50:06.258Z,13.40
2018-11-11T21:52:37.447Z,13.30
2018-11-11T21:55:09.385Z,13.30
2018-11-11T21:57:40.578Z,13.30
2018-11-11T22:00:13.812Z,13.30
2018-11-11T22:02:44.988Z,13.30
2018-11-11T22:05:16.581Z,13.30
2018-11-11T22:07:49.279Z,13.40
2018-11-11T22:10:20.817Z,13.80
2018-11-11T22:12:52.057Z,14.10
2018-11-11T22:15:23.442Z,14.30
2018-11-11T22:17:54.654Z,14.40
2018-11-11T22:20:25.808Z,14.50
2018-11-11T22:22:57.047Z,14.60
2018-11-11T22:25:28.154Z,14.70
2018-11-11T22:27:59.310Z,14.90
2018-11-11T22:30:30.458Z,15.00
2018-11-11T22:33:02.204Z,15.20
2018-11-11T22:35:33.419Z,15.30
2018-11-11T22:38:04.638Z,15.40
2018-11-11T22:40:36.007Z,15.40
2018-11-11T22:43:08.364Z,15.50
2018-11-11T22:45:39.315Z,15.60
2018-11-11T22:48:11.202Z,15.60
2018-11-11T22:50:42.329Z,15.60
2018-11-11T22:53:13.495Z,15.60
2018-11-11T22:55:44.718Z,15.50
2018-11-11T22:58:16.165Z,15.50
2018-11-11T23:00:52.755Z,15.60
2018-11-11T23:03:23.980Z,15.50
2018-11-11T23:05:55.189Z,15.60
2018-11-11T23:08:26.642Z,15.60
2018-11-11T23:10:58.154Z,15.60
2018-11-11T23:13:29.303Z,15.60
2018-11-11T23:16:00.535Z,15.50
2018-11-11T23:18:39.011Z,15.40
2018-11-11T23:21:10.641Z,15.30
2018-11-11T23:23:48.330Z,15.00
2018-11-11T23:26:19.730Z,14.80
2018-11-11T23:28:51.499Z,14.90
2018-11-11T23:31:22.606Z,14.90
2018-11-11T23:33:53.948Z,15.00
2018-11-11T23:36:26.007Z,15.10
2018-11-11T23:38:57.451Z,15.10
2018-11-11T23:41:29.507Z,15.20
2018-11-11T23:44:00.720Z,15.20
2018-11-11T23:46:31.956Z,15.30
2018-11-11T23:49:03.983Z,15.40
2018-11-11T23:51:35.612Z,15.50
2018-11-11T23:54:07.395Z,15.50
2018-11-11T23:56:38.530Z,15.60
2018-11-11T23:59:10.052Z,15.70
